createdAt,value
2018-02-25T00:01:18.026Z,17.35
2018-02-25T00:03:45.233Z,19.02
2018-02-25T00:06:11.650Z,18.10
2018-02-25T00:08:38.805Z,19.58
2018-02-25T00:11:05.242Z,17.95
2018-02-25T00:13:32.456Z,19.60
2018-02-25T00:15:58.894Z,19.35
2018-02-25T00:18:26.028Z,20.45
2018-02-25T00:20:52.467Z,20.02
2018-02-25T00:23:18.851Z,19.67
2018-02-25T00:25:45.293Z,19.87
2018-02-25T00:28:11.711Z,18.25
2018-02-25T00:30:38.603Z,19.75
2018-02-25T00:33:05.034Z,19.48
2018-02-25T00:35:31.478Z,19.23
2018-02-25T00:37:58.660Z,18.92
2018-02-25T00:40:25.104Z,19.98
2018-02-25T00:42:52.291Z,19.40
2018-02-25T00:45:18.750Z,19.05
2018-02-25T00:47:45.182Z,21.50
2018-02-25T00:50:12.377Z,23.50
2018-02-25T00:52:38.788Z,31.15
2018-02-25T00:55:05.216Z,28.25
2018-02-25T00:57:31.632Z,24.00
2018-02-25T00:59:58.768Z,25.65
2018-02-25T01:02:25.263Z,35.85
2018-02-25T01:04:52.442Z,36.92
2018-02-25T01:07:18.867Z,29.25
2018-02-25T01:09:46.761Z,26.90
2018-02-25T01:12:13.236Z,23.33
2018-02-25T01:14:40.400Z,34.53
2018-02-25T01:17:07.626Z,23.30
2018-02-25T01:19:34.064Z,21.00
2018-02-25T01:22:00.542Z,19.23
2018-02-25T01:24:26.946Z,22.90
2018-02-25T01:26:54.120Z,25.83
2018-02-25T01:29:21.278Z,21.70
2018-02-25T01:31:48.427Z,26.58
2018-02-25T01:34:14.850Z,26.98
2018-02-25T01:36:41.382Z,26.55
2018-02-25T01:39:07.810Z,22.30
2018-02-25T01:41:34.250Z,24.77
2018-02-25T01:44:01.434Z,22.10
2018-02-25T01:46:27.848Z,21.50
2018-02-25T01:48:54.243Z,23.15
2018-02-25T01:51:20.819Z,21.02
2018-02-25T01:53:48.003Z,19.67
2018-02-25T01:56:15.163Z,19.58
2018-02-25T01:58:41.603Z,20.65
2018-02-25T02:01:08.010Z,18.27
2018-02-25T02:03:34.417Z,18.35
2018-02-25T02:06:00.875Z,18.00
2018-02-25T02:08:28.063Z,19.08
2018-02-25T02:10:55.193Z,17.40
2018-02-25T02:13:22.391Z,16.55
2018-02-25T02:15:48.796Z,17.37
2018-02-25T02:18:15.201Z,17.62
2018-02-25T02:20:42.498Z,18.10
2018-02-25T02:23:09.777Z,16.05
2018-02-25T02:25:36.232Z,17.55
2018-02-25T02:28:03.394Z,16.12
2018-02-25T02:30:30.561Z,19.95
2018-02-25T02:32:57.715Z,17.65
2018-02-25T02:35:24.201Z,15.48
2018-02-25T02:37:51.377Z,16.55
2018-02-25T02:40:17.837Z,14.77
2018-02-25T02:42:44.286Z,16.95
2018-02-25T02:45:11.427Z,15.70
2018-02-25T02:47:37.888Z,18.65
2018-02-25T02:50:05.089Z,19.05
2018-02-25T02:52:31.503Z,16.15
2018-02-25T02:54:57.908Z,16.35
2018-02-25T02:57:24.457Z,18.10
2018-02-25T02:59:51.601Z,15.88
2018-02-25T03:02:18.162Z,16.75
2018-02-25T03:04:45.306Z,14.43
2018-02-25T03:07:11.814Z,15.05
2018-02-25T03:09:46.399Z,15.27
2018-02-25T03:12:12.785Z,15.48
2018-02-25T03:14:39.219Z,15.43
2018-02-25T03:17:05.659Z,16.85
2018-02-25T03:19:32.107Z,18.00
2018-02-25T03:21:58.530Z,17.90
2018-02-25T03:24:25.804Z,17.40
2018-02-25T03:26:52.939Z,18.40
2018-02-25T03:29:19.386Z,18.20
2018-02-25T03:31:45.853Z,16.92
2018-02-25T03:34:12.325Z,17.35
2018-02-25T03:36:39.721Z,15.20
2018-02-25T03:39:06.991Z,17.35
2018-02-25T03:41:34.144Z,18.08
2018-02-25T03:44:00.624Z,16.10
2018-02-25T03:46:27.028Z,18.25
2018-02-25T03:48:53.428Z,16.37
2018-02-25T03:51:20.586Z,16.45
2018-02-25T03:53:46.996Z,14.38
2018-02-25T03:56:13.525Z,13.27
2018-02-25T03:58:39.935Z,15.35
2018-02-25T04:01:06.371Z,14.38
2018-02-25T04:03:33.479Z,16.70
2018-02-25T04:05:59.889Z,15.30
2018-02-25T04:08:26.290Z,14.63
2018-02-25T04:10:52.740Z,15.17
2018-02-25T04:13:19.156Z,16.48
2018-02-25T04:15:45.685Z,13.32
2018-02-25T04:18:12.132Z,13.40
2018-02-25T04:20:39.909Z,14.85
2018-02-25T04:23:07.082Z,14.73
2018-02-25T04:25:34.265Z,13.98
2018-02-25T04:28:01.415Z,13.23
2018-02-25T04:30:27.848Z,15.15
2018-02-25T04:32:54.260Z,14.48
2018-02-25T04:35:20.657Z,11.63
2018-02-25T04:37:47.763Z,12.95
2018-02-25T04:40:14.907Z,12.52
2018-02-25T04:42:41.793Z,11.65
2018-02-25T04:45:09.579Z,11.68
2018-02-25T04:47:37.391Z,11.23
2018-02-25T04:50:03.833Z,12.25
2018-02-25T04:52:31.028Z,8.05
2018-02-25T04:54:57.450Z,9.60
2018-02-25T04:57:23.848Z,12.75
2018-02-25T04:59:50.249Z,10.05
2018-02-25T05:02:16.655Z,14.20
2018-02-25T05:04:43.077Z,13.07
2018-02-25T05:07:10.269Z,13.57
2018-02-25T05:09:36.767Z,14.18
2018-02-25T05:12:03.279Z,12.45
2018-02-25T05:14:30.428Z,12.63
2018-02-25T05:16:56.892Z,11.68
2018-02-25T05:19:24.050Z,12.65
2018-02-25T05:21:50.480Z,11.75
2018-02-25T05:24:16.964Z,13.38
2018-02-25T05:26:45.003Z,12.18
2018-02-25T05:29:11.482Z,12.43
2018-02-25T05:31:41.368Z,12.05
2018-02-25T05:34:08.522Z,13.95
2018-02-25T05:36:34.996Z,12.82
2018-02-25T05:39:02.205Z,10.68
2018-02-25T05:41:28.729Z,11.35
2018-02-25T05:43:56.003Z,14.07
2018-02-25T05:46:23.838Z,13.52
2018-02-25T05:48:50.345Z,13.10
2018-02-25T05:51:17.623Z,14.10
2018-02-25T05:53:44.794Z,11.38
2018-02-25T05:56:11.956Z,12.00
2018-02-25T05:58:39.084Z,12.23
2018-02-25T06:01:05.575Z,10.70
2018-02-25T06:03:32.002Z,12.07
2018-02-25T06:05:58.525Z,11.05
2018-02-25T06:08:25.194Z,13.02
2018-02-25T06:10:51.729Z,13.40
2018-02-25T06:13:18.927Z,11.80
2018-02-25T06:15:45.353Z,13.57
2018-02-25T06:18:12.500Z,13.70
2018-02-25T06:20:39.960Z,12.43
2018-02-25T06:23:12.439Z,11.30
2018-02-25T06:25:39.624Z,10.65
2018-02-25T06:28:06.025Z,10.82
2018-02-25T06:30:33.243Z,11.95
2018-02-25T06:33:00.410Z,11.38
2018-02-25T06:35:27.141Z,12.48
2018-02-25T06:37:54.234Z,12.43
2018-02-25T06:40:21.416Z,12.23
2018-02-25T06:42:47.834Z,14.63
2018-02-25T06:45:14.260Z,15.32
2018-02-25T06:47:40.705Z,13.02
2018-02-25T06:50:07.140Z,14.68
2018-02-25T06:52:34.579Z,11.50
2018-02-25T06:55:01.062Z,11.23
2018-02-25T06:57:27.521Z,12.55
2018-02-25T06:59:54.364Z,13.48
2018-02-25T07:02:21.512Z,13.20
2018-02-25T07:04:48.798Z,12.43
2018-02-25T07:07:15.972Z,14.35
2018-02-25T07:09:44.058Z,13.45
2018-02-25T07:12:12.014Z,19.33
2018-02-25T07:14:39.371Z,11.38
2018-02-25T07:17:12.003Z,12.80
2018-02-25T07:19:38.406Z,12.90
2018-02-25T07:22:04.832Z,14.00
2018-02-25T07:24:31.349Z,15.00
2018-02-25T07:26:57.774Z,13.10
2018-02-25T07:29:24.618Z,13.85
2018-02-25T07:31:51.119Z,15.45
2018-02-25T07:34:17.523Z,14.73
2018-02-25T07:36:44.717Z,16.55
2018-02-25T07:39:11.129Z,18.77
2018-02-25T07:41:38.540Z,17.02
2018-02-25T07:44:05.626Z,14.23
2018-02-25T07:46:32.158Z,17.35
2018-02-25T07:48:59.302Z,14.18
2018-02-25T07:51:26.520Z,15.13
2018-02-25T07:53:53.729Z,28.50
2018-02-25T07:56:20.145Z,19.67
2018-02-25T07:58:47.149Z,14.25
2018-02-25T08:01:13.552Z,14.60
2018-02-25T08:03:40.828Z,16.50
2018-02-25T08:06:07.981Z,14.18
2018-02-25T08:08:34.389Z,14.90
2018-02-25T08:11:00.802Z,14.77
2018-02-25T08:13:27.938Z,14.20
2018-02-25T08:15:55.362Z,16.95
2018-02-25T08:18:22.577Z,27.10
2018-02-25T08:20:49.847Z,24.60
2018-02-25T08:23:16.271Z,21.10
2018-02-25T08:25:42.721Z,16.62
2018-02-25T08:28:09.944Z,14.77
2018-02-25T08:30:39.721Z,13.68
2018-02-25T08:33:06.888Z,12.27
2018-02-25T08:35:34.063Z,11.40
2018-02-25T08:38:00.931Z,14.65
2018-02-25T08:40:27.471Z,11.85
2018-02-25T08:42:54.035Z,13.13
2018-02-25T08:45:21.207Z,14.00
2018-02-25T08:47:48.372Z,11.40
2018-02-25T08:50:14.775Z,11.23
2018-02-25T08:52:41.317Z,13.13
2018-02-25T08:55:07.740Z,17.23
2018-02-25T08:57:34.135Z,17.35
2018-02-25T09:00:04.157Z,11.98
2018-02-25T09:02:30.559Z,13.40
2018-02-25T09:04:57.465Z,14.02
2018-02-25T09:07:24.601Z,10.10
2018-02-25T09:09:52.059Z,12.80
2018-02-25T09:12:18.502Z,12.30
2018-02-25T09:14:44.956Z,12.20
2018-02-25T09:17:13.146Z,11.33
2018-02-25T09:19:39.686Z,13.48
2018-02-25T09:22:06.878Z,13.35
2018-02-25T09:24:33.315Z,14.23
2018-02-25T09:27:01.341Z,11.98
2018-02-25T09:29:28.514Z,13.20
2018-02-25T09:31:55.248Z,14.25
2018-02-25T09:34:21.905Z,13.10
2018-02-25T09:36:48.485Z,15.95
2018-02-25T09:39:15.164Z,12.37
2018-02-25T09:41:41.680Z,12.02
2018-02-25T09:44:08.872Z,12.80
2018-02-25T09:46:35.797Z,12.30
2018-02-25T09:49:02.294Z,14.75
2018-02-25T09:51:28.746Z,11.90
2018-02-25T09:53:55.179Z,12.00
2018-02-25T09:56:22.450Z,10.68
2018-02-25T09:58:50.548Z,11.23
2018-02-25T10:01:17.992Z,12.32
2018-02-25T10:03:44.429Z,11.18
2018-02-25T10:06:10.946Z,11.82
2018-02-25T10:08:38.552Z,10.73
2018-02-25T10:11:04.983Z,9.10
2018-02-25T10:13:32.179Z,8.20
2018-02-25T10:15:59.124Z,7.70
2018-02-25T10:18:26.654Z,8.93
2018-02-25T10:20:53.181Z,7.70
2018-02-25T10:23:19.787Z,6.35
2018-02-25T10:25:46.419Z,9.75
2018-02-25T10:28:12.870Z,8.50
2018-02-25T10:30:41.337Z,9.65
2018-02-25T10:33:08.505Z,8.02
2018-02-25T10:35:35.068Z,8.90
2018-02-25T10:38:02.265Z,7.50
2018-02-25T10:40:28.656Z,9.93
2018-02-25T10:42:55.093Z,8.73
2018-02-25T10:45:21.712Z,7.50
2018-02-25T10:47:48.920Z,7.62
2018-02-25T10:50:15.902Z,9.10
2018-02-25T10:52:42.508Z,10.25
2018-02-25T10:55:09.789Z,11.93
2018-02-25T10:57:36.223Z,8.43
2018-02-25T11:00:04.318Z,11.40
2018-02-25T11:02:31.457Z,8.23
2018-02-25T11:04:58.556Z,7.90
2018-02-25T11:07:24.990Z,6.70
2018-02-25T11:09:52.143Z,8.60
2018-02-25T11:12:18.688Z,8.52
2018-02-25T11:14:45.124Z,14.02
2018-02-25T11:17:11.554Z,5.95
2018-02-25T11:19:37.992Z,13.80
2018-02-25T11:22:05.604Z,10.77
2018-02-25T11:24:34.304Z,13.35
2018-02-25T11:27:01.695Z,14.30
2018-02-25T11:29:28.879Z,16.60
2018-02-25T11:31:55.494Z,14.48
2018-02-25T11:34:22.476Z,17.05
2018-02-25T11:36:48.949Z,20.80
2018-02-25T11:39:15.426Z,9.00
2018-02-25T11:41:42.472Z,10.55
2018-02-25T11:44:09.621Z,14.95
2018-02-25T11:46:36.102Z,6.25
2018-02-25T11:49:03.284Z,6.12
2018-02-25T11:51:30.486Z,6.25
2018-02-25T11:53:57.022Z,4.93
2018-02-25T11:56:23.443Z,6.85
2018-02-25T11:58:49.968Z,7.20
2018-02-25T12:01:16.373Z,5.45
2018-02-25T12:03:43.655Z,4.72
2018-02-25T12:06:10.829Z,5.65
2018-02-25T12:08:38.028Z,9.85
2018-02-25T12:11:05.308Z,5.12
2018-02-25T12:13:33.764Z,4.00
2018-02-25T12:16:01.000Z,6.07
2018-02-25T12:18:27.824Z,4.12
2018-02-25T12:20:55.048Z,7.15
2018-02-25T12:23:21.710Z,4.30
2018-02-25T12:25:50.587Z,6.37
2018-02-25T12:28:16.985Z,7.15
2018-02-25T12:30:43.394Z,5.62
2018-02-25T12:33:09.802Z,4.95
2018-02-25T12:35:37.094Z,5.60
2018-02-25T12:38:06.013Z,9.52
2018-02-25T12:40:33.692Z,6.30
2018-02-25T12:43:01.177Z,6.97
2018-02-25T12:45:27.873Z,26.08
2018-02-25T12:47:54.350Z,4.93
2018-02-25T12:50:21.150Z,5.75
2018-02-25T12:52:52.188Z,25.98
2018-02-25T12:55:19.958Z,9.65
2018-02-25T12:57:46.377Z,11.90
2018-02-25T13:00:12.798Z,13.60
2018-02-25T13:02:39.979Z,7.30
2018-02-25T13:05:08.155Z,4.05
2018-02-25T13:07:35.137Z,6.75
2018-02-25T13:10:03.445Z,9.55
2018-02-25T13:12:30.662Z,4.35
2018-02-25T13:14:57.512Z,5.55
2018-02-25T13:17:24.000Z,13.50
2018-02-25T13:19:50.426Z,12.63
2018-02-25T13:22:16.911Z,12.48
2018-02-25T13:24:44.143Z,9.98
2018-02-25T13:27:10.699Z,24.30
2018-02-25T13:29:37.139Z,6.45
2018-02-25T13:32:08.634Z,7.80
2018-02-25T13:34:36.081Z,6.00
2018-02-25T13:37:13.368Z,5.37
2018-02-25T13:39:40.515Z,5.78
2018-02-25T13:48:42.548Z,8.05
2018-02-25T13:51:09.877Z,5.22
2018-02-25T13:53:36.481Z,4.30
2018-02-25T13:56:02.932Z,8.20
2018-02-25T13:58:35.579Z,7.70
2018-02-25T14:01:05.748Z,6.85
2018-02-25T14:03:32.348Z,8.23
2018-02-25T14:06:09.072Z,6.30
2018-02-25T14:08:36.517Z,10.43
2018-02-25T14:11:03.770Z,6.30
2018-02-25T14:13:30.176Z,8.20
2018-02-25T14:15:57.318Z,8.13
2018-02-25T14:18:25.530Z,9.27
2018-02-25T14:20:53.025Z,5.97
2018-02-25T14:23:20.894Z,6.47
2018-02-25T14:25:48.062Z,8.13
2018-02-25T14:28:14.474Z,6.68
2018-02-25T14:30:41.370Z,8.18
2018-02-25T14:33:13.791Z,5.60
2018-02-25T14:35:42.197Z,7.25
2018-02-25T14:38:10.283Z,9.02
2018-02-25T14:40:37.692Z,6.45
2018-02-25T14:43:04.114Z,6.87
2018-02-25T14:45:32.428Z,7.95
2018-02-25T14:48:02.560Z,11.77
2018-02-25T14:50:30.503Z,8.15
2018-02-25T14:52:57.817Z,6.70
2018-02-25T14:55:29.702Z,6.75
2018-02-25T14:57:59.905Z,5.30
2018-02-25T15:00:26.981Z,5.70
2018-02-25T15:02:54.280Z,7.95
2018-02-25T15:05:22.476Z,9.68
2018-02-25T15:07:49.648Z,14.77
2018-02-25T15:10:23.003Z,6.97
2018-02-25T15:12:50.049Z,6.75
2018-02-25T15:15:17.403Z,16.05
2018-02-25T15:17:45.615Z,12.95
2018-02-25T15:20:12.780Z,18.35
2018-02-25T15:22:45.568Z,7.78
2018-02-25T15:25:12.749Z,10.85
2018-02-25T15:27:40.835Z,12.10
2018-02-25T15:30:15.082Z,12.45
2018-02-25T15:32:42.483Z,14.13
2018-02-25T15:35:09.580Z,19.12
2018-02-25T15:37:36.028Z,14.23
2018-02-25T15:40:06.736Z,9.52
2018-02-25T15:42:34.312Z,14.60
2018-02-25T15:45:07.793Z,7.12
2018-02-25T15:47:35.742Z,17.75
2018-02-25T15:50:02.164Z,13.68
2018-02-25T15:52:28.710Z,10.52
2018-02-25T15:54:55.893Z,11.50
2018-02-25T15:57:24.723Z,14.45
2018-02-25T15:59:51.201Z,15.90
2018-02-25T16:02:18.531Z,19.40
2018-02-25T16:04:45.666Z,6.95
2018-02-25T16:07:16.163Z,7.57
2018-02-25T16:09:43.304Z,43.85
2018-02-25T16:12:10.540Z,23.27
2018-02-25T16:14:38.663Z,15.88
2018-02-25T16:17:08.285Z,45.30
2018-02-25T16:19:36.921Z,11.35
2018-02-25T16:22:04.580Z,10.98
2018-02-25T16:24:32.485Z,14.35
2018-02-25T16:26:59.659Z,8.55
2018-02-25T16:29:27.136Z,11.15
2018-02-25T16:32:00.954Z,18.75
2018-02-25T16:34:29.220Z,18.27
2018-02-25T16:37:00.139Z,15.70
2018-02-25T16:39:30.511Z,17.15
2018-02-25T16:42:05.791Z,13.48
2018-02-25T16:44:32.947Z,32.42
2018-02-25T16:46:59.358Z,18.98
2018-02-25T16:49:25.858Z,17.50
2018-02-25T16:51:53.231Z,21.08
2018-02-25T16:54:21.242Z,34.33
2018-02-25T16:56:51.471Z,14.30
2018-02-25T16:59:21.783Z,63.40
2018-02-25T17:01:48.507Z,21.65
2018-02-25T17:04:17.003Z,17.25
2018-02-25T17:06:44.782Z,16.25
2018-02-25T17:09:12.170Z,18.02
2018-02-25T17:11:38.683Z,15.32
2018-02-25T17:14:07.947Z,18.15
2018-02-25T17:16:34.465Z,18.33
2018-02-25T17:19:01.811Z,16.20
2018-02-25T17:21:30.214Z,18.50
2018-02-25T17:23:56.832Z,13.73
2018-02-25T17:26:24.816Z,22.98
2018-02-25T17:29:03.878Z,19.35
2018-02-25T17:31:34.476Z,10.30
2018-02-25T17:34:06.298Z,15.50
2018-02-25T17:36:35.345Z,11.60
2018-02-25T17:39:03.182Z,11.60
2018-02-25T17:41:30.853Z,12.88
2018-02-25T17:43:58.551Z,19.80
2018-02-25T17:46:33.632Z,11.23
2018-02-25T17:49:04.762Z,11.52
2018-02-25T17:51:32.444Z,21.37
2018-02-25T17:54:00.546Z,29.20
2018-02-25T17:56:36.572Z,16.50
2018-02-25T18:04:39.175Z,11.15
2018-02-25T18:07:07.569Z,14.20
2018-02-25T18:09:34.040Z,17.48
2018-02-25T18:12:00.459Z,13.60
2018-02-25T18:14:26.899Z,12.80
2018-02-25T18:16:53.460Z,13.35
2018-02-25T18:19:20.743Z,11.15
2018-02-25T18:21:47.169Z,11.63
2018-02-25T18:24:13.589Z,14.40
2018-02-25T18:26:39.996Z,10.80
2018-02-25T18:29:06.456Z,15.70
2018-02-25T18:31:33.729Z,13.85
2018-02-25T18:34:00.882Z,9.13
2018-02-25T18:36:27.358Z,10.05
2018-02-25T18:38:53.788Z,12.93
2018-02-25T18:41:20.240Z,13.00
2018-02-25T18:43:46.687Z,31.17
2018-02-25T18:46:13.130Z,35.17
2018-02-25T18:48:39.743Z,30.67
2018-02-25T18:51:06.303Z,22.67
2018-02-25T18:53:32.859Z,34.35
2018-02-25T18:56:00.134Z,21.85
2018-02-25T18:58:27.328Z,34.05
2018-02-25T19:00:53.865Z,28.02
2018-02-25T19:03:24.205Z,36.13
2018-02-25T19:05:50.671Z,31.50
2018-02-25T19:08:17.097Z,51.30
2018-02-25T19:10:43.577Z,54.65
2018-02-25T19:13:10.851Z,90.35
2018-02-25T19:15:38.128Z,75.75
2018-02-25T19:18:04.578Z,31.60
2018-02-25T19:20:31.794Z,15.18
2018-02-25T19:22:58.246Z,22.45
2018-02-25T19:25:25.513Z,21.40
2018-02-25T19:27:51.948Z,15.52
2018-02-25T19:30:18.458Z,16.23
2018-02-25T19:32:45.853Z,12.60
2018-02-25T19:35:12.418Z,17.23
2018-02-25T19:37:49.101Z,16.00
2018-02-25T19:40:23.524Z,13.05
2018-02-25T19:42:50.826Z,14.50
2018-02-25T19:45:18.006Z,13.10
2018-02-25T19:47:44.631Z,16.23
2018-02-25T19:50:13.125Z,14.63
2018-02-25T19:52:41.046Z,16.90
2018-02-25T19:55:08.283Z,17.92
2018-02-25T19:57:34.779Z,14.52
2018-02-25T20:00:02.162Z,19.73
2018-02-25T20:02:28.982Z,20.33
2018-02-25T20:04:55.564Z,16.98
2018-02-25T20:07:22.812Z,15.23
2018-02-25T20:09:49.260Z,11.77
2018-02-25T20:12:15.708Z,16.05
2018-02-25T20:14:42.631Z,18.92
2018-02-25T20:17:09.291Z,28.75
2018-02-25T20:19:37.566Z,22.50
2018-02-25T20:22:05.572Z,25.10
2018-02-25T20:24:32.494Z,19.92
2018-02-25T20:26:59.724Z,20.48
2018-02-25T20:29:26.184Z,15.65
2018-02-25T20:31:52.588Z,20.25
2018-02-25T20:34:19.776Z,11.68
2018-02-25T20:36:46.195Z,15.00
2018-02-25T20:39:12.820Z,11.38
2018-02-25T20:41:40.062Z,13.90
2018-02-25T20:44:06.619Z,15.98
2018-02-25T20:46:33.928Z,13.85
2018-02-25T20:49:01.099Z,14.07
2018-02-25T20:51:28.682Z,14.07
2018-02-25T20:53:55.159Z,13.85
2018-02-25T20:56:21.696Z,14.85
2018-02-25T20:58:48.954Z,11.80
2018-02-25T21:01:16.529Z,15.68
2018-02-25T21:03:43.010Z,14.93
2018-02-25T21:06:09.772Z,13.80
2018-02-25T21:08:38.168Z,16.83
2018-02-25T21:11:06.572Z,11.48
2018-02-25T21:13:33.248Z,15.90
2018-02-25T21:15:59.752Z,11.98
2018-02-25T21:18:26.232Z,13.48
2018-02-25T21:20:53.386Z,12.25
2018-02-25T21:23:19.808Z,14.80
2018-02-25T21:25:46.490Z,12.65
2018-02-25T21:28:12.960Z,12.73
2018-02-25T21:30:40.188Z,12.85
2018-02-25T21:33:06.594Z,12.63
2018-02-25T21:35:33.002Z,15.15
2018-02-25T21:37:59.425Z,16.35
2018-02-25T21:40:26.703Z,13.05
2018-02-25T21:42:53.887Z,11.07
2018-02-25T21:45:20.391Z,12.18
2018-02-25T21:47:46.836Z,10.60
2018-02-25T21:50:13.253Z,13.13
2018-02-25T21:52:44.938Z,12.95
2018-02-25T21:55:11.408Z,13.52
2018-02-25T21:57:54.527Z,14.65
2018-02-25T22:00:27.138Z,14.15
2018-02-25T22:02:59.689Z,16.17
2018-02-25T22:05:26.138Z,14.60
2018-02-25T22:07:52.594Z,14.63
2018-02-25T22:10:19.746Z,12.35
2018-02-25T22:12:46.224Z,13.90
2018-02-25T22:15:13.502Z,14.32
2018-02-25T22:17:41.234Z,13.90
2018-02-25T22:20:07.742Z,13.43
2018-02-25T22:22:34.918Z,10.45
2018-02-25T22:25:01.351Z,11.73
2018-02-25T22:27:27.929Z,11.95
2018-02-25T22:29:55.095Z,12.20
2018-02-25T22:32:22.241Z,16.77
2018-02-25T22:34:48.716Z,17.67
2018-02-25T22:37:15.186Z,14.25
2018-02-25T22:39:42.546Z,13.45
2018-02-25T22:42:08.941Z,22.15
2018-02-25T22:44:35.354Z,17.10
2018-02-25T22:47:01.763Z,12.85
2018-02-25T22:49:28.176Z,17.65
2018-02-25T22:51:55.363Z,17.05
2018-02-25T22:54:21.776Z,19.40
2018-02-25T22:56:48.198Z,20.88
2018-02-25T22:59:14.600Z,16.10
2018-02-25T23:01:41.022Z,15.77
2018-02-25T23:04:07.426Z,16.40
2018-02-25T23:06:34.571Z,22.00
2018-02-25T23:09:01.029Z,26.27
2018-02-25T23:11:28.195Z,21.45
2018-02-25T23:13:54.580Z,22.67
2018-02-25T23:16:21.754Z,21.20
2018-02-25T23:18:48.920Z,20.30
2018-02-25T23:21:16.078Z,13.50
2018-02-25T23:23:43.993Z,14.82
2018-02-25T23:26:10.409Z,16.67
2018-02-25T23:28:37.561Z,13.55
2018-02-25T23:31:04.021Z,15.32
2018-02-25T23:33:30.455Z,16.42
2018-02-25T23:35:56.880Z,15.80
2018-02-25T23:38:24.023Z,11.50
2018-02-25T23:40:50.442Z,13.73
2018-02-25T23:43:16.840Z,13.43
2018-02-25T23:45:44.734Z,16.02
2018-02-25T23:48:11.996Z,15.13
2018-02-25T23:50:41.785Z,12.88
2018-02-25T23:53:08.202Z,14.38
2018-02-25T23:55:35.389Z,11.93
2018-02-25T23:58:02.544Z,14.98
